createdAt,value
2022-09-03T00:02:11.235Z,40.27
2022-09-03T00:04:37.419Z,40.09
2022-09-03T00:07:03.626Z,40.40
2022-09-03T00:09:29.818Z,40.38
2022-09-03T00:11:56.920Z,40.31
2022-09-03T00:14:23.091Z,40.52
2022-09-03T00:16:49.304Z,40.37
2022-09-03T00:19:15.490Z,40.49
2022-09-03T00:21:41.649Z,40.39
2022-09-03T00:24:07.822Z,40.42
2022-09-03T00:26:40.628Z,40.37
2022-09-03T00:29:06.783Z,40.59
2022-09-03T00:31:33.016Z,40.68
2022-09-03T00:33:59.264Z,40.70
2022-09-03T00:36:25.462Z,40.74
2022-09-03T00:38:51.624Z,40.75
2022-09-03T00:41:17.805Z,40.86
2022-09-03T00:43:43.953Z,40.79
2022-09-03T00:46:10.199Z,40.80
2022-09-03T00:48:36.448Z,40.80
2022-09-03T00:51:05.522Z,40.89
2022-09-03T00:53:31.745Z,41.01
2022-09-03T00:55:58.003Z,40.96
2022-09-03T00:58:24.219Z,41.01
2022-09-03T01:00:50.534Z,40.98
2022-09-03T01:03:16.667Z,41.13
2022-09-03T01:05:42.831Z,41.15
2022-09-03T01:08:09.042Z,41.23
2022-09-03T01:10:35.241Z,41.07
2022-09-03T01:13:01.458Z,41.18
2022-09-03T01:15:27.700Z,41.20
2022-09-03T01:17:53.946Z,41.37
2022-09-03T01:20:20.234Z,41.34
2022-09-03T01:22:47.129Z,41.35
2022-09-03T01:25:13.267Z,41.39
2022-09-03T01:27:39.401Z,41.37
2022-09-03T01:30:05.581Z,41.44
2022-09-03T01:32:31.724Z,41.33
2022-09-03T01:34:57.881Z,41.36
2022-09-03T01:37:24.242Z,41.54
2022-09-03T01:39:50.474Z,41.61
2022-09-03T01:42:20.936Z,41.50
2022-09-03T01:44:47.403Z,41.68
2022-09-03T01:47:17.537Z,41.69
2022-09-03T01:49:43.671Z,41.75
2022-09-03T01:52:09.822Z,41.60
2022-09-03T01:54:35.977Z,41.79
2022-09-03T01:57:02.113Z,41.88
2022-09-03T01:59:28.284Z,41.74
2022-09-03T02:01:54.567Z,41.84
2022-09-03T02:04:20.756Z,41.76
2022-09-03T02:06:46.926Z,41.79
2022-09-03T02:09:13.071Z,41.98
2022-09-03T02:11:39.373Z,41.91
2022-09-03T02:14:05.535Z,41.91
2022-09-03T02:16:31.686Z,41.92
2022-09-03T02:18:57.816Z,41.97
2022-09-03T02:21:23.986Z,42.26
2022-09-03T02:23:50.126Z,42.09
2022-09-03T02:26:16.267Z,42.09
2022-09-03T02:28:42.466Z,42.17
2022-09-03T02:31:08.628Z,42.26
2022-09-03T02:33:34.853Z,42.28
2022-09-03T02:36:01.007Z,42.50
2022-09-03T02:38:27.160Z,42.56
2022-09-03T02:40:53.348Z,42.58
2022-09-03T02:43:19.572Z,42.64
2022-09-03T02:45:46.183Z,42.59
2022-09-03T02:48:12.448Z,42.64
2022-09-03T02:50:38.605Z,42.71
2022-09-03T02:53:04.748Z,42.86
2022-09-03T02:55:30.885Z,42.89
2022-09-03T02:57:57.054Z,42.92
2022-09-03T03:00:23.212Z,42.84
2022-09-03T03:02:49.429Z,43.03
2022-09-03T03:05:15.611Z,42.91
2022-09-03T03:07:41.759Z,43.01
2022-09-03T03:10:07.930Z,42.99
2022-09-03T03:12:34.102Z,42.93
2022-09-03T03:15:00.293Z,43.02
2022-09-03T03:17:26.420Z,43.09
2022-09-03T03:19:52.587Z,43.19
2022-09-03T03:22:18.735Z,43.23
2022-09-03T03:24:44.866Z,43.15
2022-09-03T03:27:11.038Z,43.38
2022-09-03T03:29:37.193Z,43.16
2022-09-03T03:32:03.359Z,43.29
2022-09-03T03:34:29.510Z,43.18
2022-09-03T03:36:55.659Z,43.46
2022-09-03T03:39:21.835Z,43.23
2022-09-03T03:41:48.009Z,43.42
2022-09-03T03:44:14.147Z,43.24
2022-09-03T03:46:40.291Z,43.45
2022-09-03T03:49:06.447Z,43.42
2022-09-03T03:51:32.589Z,43.52
2022-09-03T03:54:02.013Z,43.52
2022-09-03T03:56:30.612Z,43.70
2022-09-03T03:58:56.732Z,43.68
2022-09-03T04:01:22.940Z,43.56
2022-09-03T04:03:49.100Z,43.74
2022-09-03T04:06:15.230Z,43.77
2022-09-03T04:08:41.710Z,43.63
2022-09-03T04:11:08.362Z,43.57
2022-09-03T04:13:34.498Z,43.56
2022-09-03T04:16:00.639Z,43.57
2022-09-03T04:18:26.816Z,43.54
2022-09-03T04:20:52.964Z,43.61
2022-09-03T04:23:19.093Z,43.64
2022-09-03T04:25:45.232Z,43.58
2022-09-03T04:28:11.377Z,43.54
2022-09-03T04:30:38.838Z,43.64
2022-09-03T04:33:05.043Z,43.71
2022-09-03T04:35:31.219Z,43.63
2022-09-03T04:37:57.367Z,43.77
2022-09-03T04:40:23.523Z,43.53
2022-09-03T04:42:49.664Z,43.72
2022-09-03T04:45:15.807Z,43.87
2022-09-03T04:47:42.459Z,43.65
2022-09-03T04:50:08.598Z,43.74
2022-09-03T04:52:34.736Z,43.69
2022-09-03T04:55:00.903Z,43.64
2022-09-03T04:57:27.041Z,44.01
2022-09-03T04:59:53.192Z,43.74
2022-09-03T05:02:19.354Z,43.73
2022-09-03T05:04:45.574Z,43.86
2022-09-03T05:07:11.708Z,43.93
2022-09-03T05:09:37.865Z,43.84
2022-09-03T05:12:04.025Z,44.09
2022-09-03T05:14:30.632Z,43.92
2022-09-03T05:16:56.813Z,43.98
2022-09-03T05:19:22.961Z,43.97
2022-09-03T05:21:49.341Z,44.05
2022-09-03T05:24:15.523Z,44.01
2022-09-03T05:26:41.656Z,44.04
2022-09-03T05:29:07.808Z,43.96
2022-09-03T05:31:34.079Z,44.04
2022-09-03T05:34:00.345Z,44.06
2022-09-03T05:36:26.480Z,44.00
2022-09-03T05:38:52.643Z,44.12
2022-09-03T05:41:19.029Z,44.03
2022-09-03T05:43:45.359Z,44.06
2022-09-03T05:46:11.603Z,44.32
2022-09-03T05:48:37.800Z,44.11
2022-09-03T05:51:03.945Z,44.20
2022-09-03T05:53:30.179Z,44.13
2022-09-03T05:55:56.335Z,44.24
2022-09-03T05:58:22.503Z,44.20
2022-09-03T06:00:48.667Z,44.23
2022-09-03T06:03:14.920Z,44.13
2022-09-03T06:05:41.181Z,44.20
2022-09-03T06:08:07.333Z,44.21
2022-09-03T06:10:40.662Z,44.08
2022-09-03T06:13:07.679Z,44.12
2022-09-03T06:15:33.823Z,44.18
2022-09-03T06:17:59.965Z,44.07
2022-09-03T06:20:26.179Z,44.14
2022-09-03T06:22:52.453Z,44.10
2022-09-03T06:25:18.632Z,43.98
2022-09-03T06:27:44.840Z,43.92
2022-09-03T06:30:11.028Z,43.89
2022-09-03T06:32:37.174Z,43.93
2022-09-03T06:35:03.387Z,44.04
2022-09-03T06:37:29.530Z,43.89
2022-09-03T06:39:55.731Z,44.00
2022-09-03T06:42:21.944Z,43.80
2022-09-03T06:44:48.082Z,43.87
2022-09-03T06:47:14.217Z,43.83
2022-09-03T06:49:40.388Z,43.80
2022-09-03T06:52:07.114Z,43.68
2022-09-03T06:54:33.246Z,43.79
2022-09-03T06:56:59.413Z,43.56
2022-09-03T06:59:25.577Z,43.62
2022-09-03T07:01:51.813Z,43.51
2022-09-03T07:04:19.141Z,43.51
2022-09-03T07:06:45.586Z,43.41
2022-09-03T07:09:11.743Z,43.35
2022-09-03T07:11:38.185Z,43.32
2022-09-03T07:14:04.333Z,43.37
2022-09-03T07:16:30.557Z,43.29
2022-09-03T07:18:56.830Z,43.26
2022-09-03T07:21:22.957Z,43.11
2022-09-03T07:23:49.097Z,43.02
2022-09-03T07:26:15.291Z,42.97
2022-09-03T07:28:41.474Z,42.99
2022-09-03T07:31:07.627Z,42.93
2022-09-03T07:33:34.036Z,42.96
2022-09-03T07:36:00.197Z,42.80
2022-09-03T07:38:26.341Z,42.92
2022-09-03T07:40:52.494Z,42.58
2022-09-03T07:43:18.643Z,42.64
2022-09-03T07:45:44.774Z,42.38
2022-09-03T07:48:10.931Z,42.38
2022-09-03T07:50:37.070Z,42.04
2022-09-03T07:53:03.217Z,42.04
2022-09-03T07:55:29.367Z,41.86
2022-09-03T07:57:55.518Z,41.93
2022-09-03T08:00:21.640Z,41.83
2022-09-03T08:02:48.158Z,41.65
2022-09-03T08:05:14.280Z,41.67
2022-09-03T08:07:40.418Z,41.44
2022-09-03T08:10:07.873Z,41.32
2022-09-03T08:12:34.007Z,41.07
2022-09-03T08:15:00.133Z,41.03
2022-09-03T08:17:26.285Z,41.11
2022-09-03T08:19:52.417Z,40.92
2022-09-03T08:22:18.576Z,40.93
2022-09-03T08:24:44.756Z,40.57
2022-09-03T08:27:10.894Z,40.68
2022-09-03T08:29:37.055Z,40.37
2022-09-03T08:32:05.272Z,40.44
2022-09-03T08:34:31.654Z,40.25
2022-09-03T08:36:57.801Z,40.09
2022-09-03T08:39:24.030Z,40.10
2022-09-03T08:41:50.218Z,39.95
2022-09-03T08:44:16.360Z,39.84
2022-09-03T08:46:42.569Z,39.89
2022-09-03T08:49:08.735Z,39.85
2022-09-03T08:51:34.861Z,39.45
2022-09-03T08:54:01.014Z,39.67
2022-09-03T08:56:27.161Z,39.63
2022-09-03T08:58:53.289Z,39.64
2022-09-03T09:01:19.492Z,39.54
2022-09-03T09:03:45.698Z,39.71
2022-09-03T09:06:11.833Z,39.72
2022-09-03T09:08:37.993Z,39.64
2022-09-03T09:11:04.139Z,39.54
2022-09-03T09:13:30.337Z,39.63
2022-09-03T09:15:56.557Z,39.83
2022-09-03T09:18:22.718Z,39.79
2022-09-03T09:20:48.852Z,39.66
2022-09-03T09:23:15.020Z,39.47
2022-09-03T09:25:41.145Z,39.41
2022-09-03T09:28:07.269Z,39.47
2022-09-03T09:30:33.439Z,39.30
2022-09-03T09:32:59.566Z,39.30
2022-09-03T09:35:25.688Z,39.37
2022-09-03T09:37:51.842Z,39.32
2022-09-03T09:40:18.034Z,39.30
2022-09-03T09:42:44.260Z,39.40
2022-09-03T09:45:10.442Z,39.45
2022-09-03T09:47:36.572Z,39.32
2022-09-03T09:50:02.794Z,39.44
2022-09-03T09:52:28.975Z,39.28
2022-09-03T09:54:55.116Z,39.38
2022-09-03T09:57:21.270Z,39.36
2022-09-03T09:59:47.409Z,39.31
2022-09-03T10:02:13.665Z,39.43
2022-09-03T10:04:48.018Z,39.65
2022-09-03T10:07:14.319Z,39.63
2022-09-03T10:09:40.505Z,39.74
2022-09-03T10:12:06.654Z,39.56
2022-09-03T10:14:32.796Z,39.43
2022-09-03T10:16:58.941Z,39.67
2022-09-03T10:19:25.093Z,39.81
2022-09-03T10:21:51.273Z,39.85
2022-09-03T10:24:17.413Z,40.13
2022-09-03T10:26:43.582Z,39.92
2022-09-03T10:29:09.752Z,39.69
2022-09-03T10:31:35.973Z,39.84
2022-09-03T10:34:02.177Z,39.88
2022-09-03T10:36:28.392Z,39.83
2022-09-03T10:38:54.530Z,39.86
2022-09-03T10:41:20.680Z,39.83
2022-09-03T10:43:46.824Z,39.88
2022-09-03T10:46:12.981Z,40.02
2022-09-03T10:48:39.187Z,39.85
2022-09-03T10:51:05.337Z,40.04
2022-09-03T10:53:31.493Z,39.92
2022-09-03T10:55:57.636Z,40.11
2022-09-03T10:58:23.822Z,40.11
2022-09-03T11:00:50.065Z,40.14
2022-09-03T11:03:16.204Z,40.28
2022-09-03T11:05:47.340Z,40.25
2022-09-03T11:08:13.498Z,40.29
2022-09-03T11:10:39.639Z,40.27
2022-09-03T11:13:06.321Z,40.16
2022-09-03T11:15:32.554Z,40.12
2022-09-03T11:17:58.773Z,40.10
2022-09-03T11:20:24.941Z,39.79
2022-09-03T11:22:51.154Z,39.49
2022-09-03T11:25:17.303Z,39.45
2022-09-03T11:27:43.463Z,39.29
2022-09-03T11:30:09.629Z,39.02
2022-09-03T11:32:35.783Z,38.81
2022-09-03T11:35:01.934Z,38.66
2022-09-03T11:37:28.203Z,38.32
2022-09-03T11:39:54.409Z,38.25
2022-09-03T11:42:22.781Z,38.14
2022-09-03T11:44:51.158Z,38.02
2022-09-03T11:47:18.139Z,37.86
2022-09-03T11:49:44.301Z,37.65
2022-09-03T11:52:10.448Z,37.65
2022-09-03T11:54:36.583Z,37.49
2022-09-03T11:57:02.766Z,37.44
2022-09-03T11:59:28.911Z,37.43
2022-09-03T12:01:55.052Z,37.43
2022-09-03T12:04:21.266Z,37.42
2022-09-03T12:06:47.447Z,37.46
2022-09-03T12:09:13.599Z,37.50
2022-09-03T12:11:39.750Z,37.61
2022-09-03T12:14:06.446Z,37.56
2022-09-03T12:16:33.181Z,37.65
2022-09-03T12:18:59.341Z,37.90
2022-09-03T12:21:25.482Z,37.68
2022-09-03T12:23:51.624Z,37.70
2022-09-03T12:26:24.524Z,37.88
2022-09-03T12:28:51.854Z,37.75
2022-09-03T12:31:18.171Z,37.67
2022-09-03T12:33:44.353Z,37.69
2022-09-03T12:36:10.486Z,37.58
2022-09-03T12:39:00.702Z,37.65
2022-09-03T12:41:26.918Z,37.70
2022-09-03T12:43:53.735Z,37.95
2022-09-03T12:46:20.034Z,38.15
2022-09-03T12:49:29.688Z,38.12
2022-09-03T12:51:56.720Z,37.98
2022-09-03T12:54:23.207Z,37.84
2022-09-03T12:56:49.355Z,37.91
2022-09-03T12:59:15.490Z,38.14
2022-09-03T13:01:41.839Z,38.14
2022-09-03T13:04:08.093Z,37.96
2022-09-03T13:06:36.480Z,38.02
2022-09-03T13:09:02.628Z,37.93
2022-09-03T13:11:28.784Z,38.01
2022-09-03T13:13:54.920Z,37.89
2022-09-03T13:16:21.112Z,38.13
2022-09-03T13:18:47.316Z,38.29
2022-09-03T13:21:13.452Z,38.51
2022-09-03T13:23:39.649Z,38.61
2022-09-03T13:26:06.311Z,38.53
2022-09-03T13:28:32.675Z,38.62
2022-09-03T13:30:59.421Z,38.71
2022-09-03T13:33:26.541Z,38.76
2022-09-03T13:35:55.512Z,38.76
2022-09-03T13:38:21.696Z,38.70
2022-09-03T13:40:47.830Z,38.55
2022-09-03T13:43:13.986Z,38.64
2022-09-03T13:45:40.905Z,38.73
2022-09-03T13:48:07.107Z,38.64
2022-09-03T13:50:33.253Z,38.68
2022-09-03T13:52:59.486Z,38.49
2022-09-03T13:55:25.660Z,38.45
2022-09-03T13:57:51.817Z,38.08
2022-09-03T14:00:18.045Z,38.25
2022-09-03T14:02:44.262Z,37.86
2022-09-03T14:05:10.444Z,37.89
2022-09-03T14:07:36.609Z,37.80
2022-09-03T14:10:02.762Z,37.87
2022-09-03T14:12:28.914Z,37.92
2022-09-03T14:14:55.077Z,37.76
2022-09-03T14:17:21.220Z,37.76
2022-09-03T14:19:47.363Z,37.57
2022-09-03T14:22:13.508Z,37.46
2022-09-03T14:24:39.652Z,37.12
2022-09-03T14:27:05.803Z,37.16
2022-09-03T14:29:31.961Z,37.35
2022-09-03T14:31:58.172Z,37.33
2022-09-03T14:34:24.336Z,37.21
2022-09-03T14:36:51.129Z,36.99
2022-09-03T14:39:18.279Z,37.13
2022-09-03T14:41:44.490Z,37.05
2022-09-03T14:44:10.670Z,36.86
2022-09-03T14:46:36.824Z,36.90
2022-09-03T14:49:03.018Z,36.72
2022-09-03T14:51:29.190Z,36.70
2022-09-03T14:53:55.334Z,36.93
2022-09-03T14:56:21.476Z,36.82
2022-09-03T14:58:47.644Z,36.76
2022-09-03T15:01:13.857Z,36.65
2022-09-03T15:03:40.020Z,36.61
2022-09-03T15:06:06.190Z,36.57
2022-09-03T15:08:32.342Z,36.52
2022-09-03T15:10:58.468Z,36.56
2022-09-03T15:13:26.109Z,36.56
2022-09-03T15:15:52.567Z,36.53
2022-09-03T15:18:18.693Z,36.78
2022-09-03T15:20:44.870Z,36.72
2022-09-03T15:23:11.013Z,36.58
2022-09-03T15:25:37.134Z,36.13
2022-09-03T15:28:03.577Z,36.28
2022-09-03T15:30:29.721Z,36.53
2022-09-03T15:32:55.852Z,36.47
2022-09-03T15:35:22.002Z,36.74
2022-09-03T15:37:48.141Z,37.04
2022-09-03T15:40:14.290Z,37.09
2022-09-03T15:42:40.434Z,37.23
2022-09-03T15:45:06.573Z,37.38
2022-09-03T15:47:41.240Z,37.33
2022-09-03T15:50:17.669Z,37.51
2022-09-03T15:52:43.798Z,37.78
2022-09-03T15:55:09.936Z,37.95
2022-09-03T15:57:36.098Z,38.03
2022-09-03T16:00:02.455Z,38.10
2022-09-03T16:02:28.591Z,38.09
2022-09-03T16:04:54.738Z,38.04
2022-09-03T16:07:20.879Z,38.12
2022-09-03T16:10:02.013Z,38.22
2022-09-03T16:12:33.163Z,38.18
2022-09-03T16:14:59.326Z,38.20
2022-09-03T16:17:25.457Z,38.20
2022-09-03T16:19:51.588Z,38.21
2022-09-03T16:22:17.742Z,38.09
2022-09-03T16:24:43.872Z,38.25
2022-09-03T16:27:10.028Z,38.34
2022-09-03T16:29:37.416Z,38.30
2022-09-03T16:32:03.540Z,38.42
2022-09-03T16:34:30.191Z,38.42
2022-09-03T16:36:56.317Z,38.52
2022-09-03T16:39:22.494Z,38.58
2022-09-03T16:41:49.385Z,38.54
2022-09-03T16:44:15.513Z,38.68
2022-09-03T16:46:41.672Z,38.76
2022-09-03T16:49:07.814Z,38.89
2022-09-03T16:51:33.945Z,38.99
2022-09-03T16:54:00.092Z,39.15
2022-09-03T16:56:26.236Z,39.17
2022-09-03T16:58:52.492Z,39.35
2022-09-03T17:01:18.814Z,39.45
2022-09-03T17:03:45.024Z,39.57
2022-09-03T17:06:11.168Z,39.71
2022-09-03T17:08:37.300Z,39.80
2022-09-03T17:11:03.460Z,39.84
2022-09-03T17:13:29.849Z,40.04
2022-09-03T17:15:56.035Z,40.25
2022-09-03T17:18:22.225Z,40.24
2022-09-03T17:20:49.568Z,40.46
2022-09-03T17:23:15.837Z,40.50
2022-09-03T17:25:41.982Z,40.69
2022-09-03T17:28:08.321Z,40.87
2022-09-03T17:30:34.455Z,40.96
2022-09-03T17:33:00.627Z,41.16
2022-09-03T17:35:26.801Z,41.42
2022-09-03T17:37:52.939Z,41.50
2022-09-03T17:40:19.085Z,41.63
2022-09-03T17:42:45.224Z,41.81
2022-09-03T17:45:11.353Z,41.81
2022-09-03T17:47:37.496Z,41.96
2022-09-03T17:50:03.629Z,42.12
2022-09-03T17:52:29.757Z,42.18
2022-09-03T17:54:55.934Z,42.31
2022-09-03T17:57:22.066Z,42.49
2022-09-03T17:59:48.206Z,42.65
2022-09-03T18:02:14.355Z,42.77
2022-09-03T18:04:41.648Z,42.79
2022-09-03T18:07:07.785Z,42.90
2022-09-03T18:09:37.738Z,43.26
2022-09-03T18:12:04.178Z,43.26
2022-09-03T18:14:30.358Z,43.28
2022-09-03T18:16:56.535Z,43.62
2022-09-03T18:19:22.665Z,43.62
2022-09-03T18:21:48.806Z,43.88
2022-09-03T18:24:14.958Z,43.86
2022-09-03T18:26:41.134Z,44.15
2022-09-03T18:29:07.281Z,44.09
2022-09-03T18:31:33.485Z,44.19
2022-09-03T18:33:59.625Z,44.42
2022-09-03T18:36:25.766Z,44.49
2022-09-03T18:38:51.971Z,44.54
2022-09-03T18:41:18.670Z,44.70
2022-09-03T18:43:44.816Z,44.81
2022-09-03T18:48:57.960Z,45.05
2022-09-03T18:51:24.186Z,45.14
2022-09-03T18:53:50.327Z,45.00
2022-09-03T18:56:17.569Z,45.19
2022-09-03T18:58:43.732Z,45.29
2022-09-03T19:01:09.876Z,45.37
2022-09-03T19:03:36.009Z,45.38
2022-09-03T19:06:02.178Z,45.29
2022-09-03T19:08:28.325Z,45.51
2022-09-03T19:10:54.470Z,45.57
2022-09-03T19:13:20.608Z,45.68
2022-09-03T19:15:46.774Z,45.50
2022-09-03T19:18:12.939Z,45.78
2022-09-03T19:20:39.098Z,45.87
2022-09-03T19:23:05.228Z,45.85
2022-09-03T19:25:31.364Z,45.87
2022-09-03T19:28:00.171Z,46.06
2022-09-03T19:30:26.522Z,45.97
2022-09-03T19:32:52.673Z,45.91
2022-09-03T19:35:18.831Z,46.09
2022-09-03T19:37:44.975Z,45.99
2022-09-03T19:40:11.114Z,46.27
2022-09-03T19:42:37.308Z,46.34
2022-09-03T19:45:03.460Z,46.63
2022-09-03T19:47:29.620Z,46.58
2022-09-03T19:49:55.774Z,46.75
2022-09-03T19:52:21.908Z,46.92
2022-09-03T19:54:48.044Z,47.08
2022-09-03T19:57:14.211Z,47.20
2022-09-03T19:59:40.366Z,47.10
2022-09-03T20:02:06.502Z,47.40
2022-09-03T20:04:32.672Z,47.28
2022-09-03T20:06:58.814Z,47.50
2022-09-03T20:09:24.966Z,47.55
2022-09-03T20:11:51.114Z,47.83
2022-09-03T20:14:17.256Z,47.96
2022-09-03T20:16:43.406Z,48.08
2022-09-03T20:19:09.566Z,48.20
2022-09-03T20:21:35.729Z,48.08
2022-09-03T20:24:02.724Z,48.35
2022-09-03T20:26:28.867Z,48.29
2022-09-03T20:28:55.004Z,48.53
2022-09-03T20:31:21.190Z,48.60
2022-09-03T20:33:47.412Z,48.41
2022-09-03T20:36:13.549Z,48.65
2022-09-03T20:38:39.692Z,48.53
2022-09-03T20:41:05.829Z,48.78
2022-09-03T20:43:31.958Z,48.60
2022-09-03T20:45:58.163Z,48.83
2022-09-03T20:48:25.003Z,48.90
2022-09-03T20:50:51.232Z,48.86
2022-09-03T20:53:17.382Z,49.00
2022-09-03T20:55:43.539Z,48.93
2022-09-03T20:58:09.691Z,49.14
2022-09-03T21:00:39.044Z,49.15
2022-09-03T21:03:05.209Z,49.21
2022-09-03T21:05:31.374Z,49.61
2022-09-03T21:07:57.497Z,49.67
2022-09-03T21:10:23.659Z,49.64
2022-09-03T21:12:49.799Z,49.81
2022-09-03T21:15:15.936Z,49.80
2022-09-03T21:17:42.088Z,49.68
2022-09-03T21:20:08.223Z,50.02
2022-09-03T21:22:34.363Z,49.94
2022-09-03T21:25:00.518Z,49.99
2022-09-03T21:27:26.651Z,50.15
2022-09-03T21:29:52.794Z,50.07
2022-09-03T21:32:18.945Z,50.33
2022-09-03T21:34:45.076Z,50.57
2022-09-03T21:37:11.216Z,50.35
2022-09-03T21:39:37.463Z,50.59
2022-09-03T21:42:03.614Z,50.50
2022-09-03T21:44:29.748Z,50.58
2022-09-03T21:46:56.412Z,50.60
2022-09-03T21:49:22.544Z,50.80
2022-09-03T21:51:48.926Z,50.88
2022-09-03T21:54:15.154Z,51.03
2022-09-03T21:56:41.397Z,50.92
2022-09-03T21:59:09.358Z,51.01
2022-09-03T22:01:35.823Z,50.98
2022-09-03T22:04:02.022Z,51.02
2022-09-03T22:06:28.141Z,50.95
2022-09-03T22:08:54.285Z,50.65
2022-09-03T22:11:20.414Z,50.62
2022-09-03T22:13:46.538Z,50.83
2022-09-03T22:16:12.889Z,50.70
2022-09-03T22:18:39.049Z,50.64
2022-09-03T22:21:05.189Z,50.69
2022-09-03T22:23:31.340Z,50.57
2022-09-03T22:25:57.473Z,50.75
2022-09-03T22:28:23.610Z,50.68
2022-09-03T22:30:49.825Z,50.73
2022-09-03T22:33:16.013Z,50.58
2022-09-03T22:35:42.155Z,50.66
2022-09-03T22:38:08.305Z,50.67
2022-09-03T22:40:34.442Z,50.75
2022-09-03T22:43:00.578Z,50.71
2022-09-03T22:45:26.731Z,50.66
2022-09-03T22:47:52.862Z,50.68
2022-09-03T22:50:19.422Z,50.56
2022-09-03T22:52:45.870Z,50.72
2022-09-03T22:55:12.007Z,50.75
2022-09-03T22:57:38.141Z,50.73
2022-09-03T23:00:04.304Z,50.79
2022-09-03T23:02:30.455Z,50.64
2022-09-03T23:04:56.593Z,50.68
2022-09-03T23:07:22.963Z,50.65
2022-09-03T23:09:49.108Z,50.81
2022-09-03T23:12:15.247Z,50.79
2022-09-03T23:14:41.406Z,50.62
2022-09-03T23:17:07.557Z,50.73
2022-09-03T23:19:33.689Z,50.70
2022-09-03T23:21:59.843Z,50.73
2022-09-03T23:24:25.981Z,50.73
2022-09-03T23:26:52.119Z,50.79
2022-09-03T23:29:18.273Z,50.79
2022-09-03T23:31:44.426Z,50.74
2022-09-03T23:34:10.560Z,50.87
2022-09-03T23:36:57.989Z,50.90
2022-09-03T23:39:22.852Z,50.77
2022-09-03T23:41:49.044Z,50.93
2022-09-03T23:44:17.394Z,50.88
2022-09-03T23:46:43.637Z,51.00
2022-09-03T23:49:09.789Z,51.12
2022-09-03T23:51:35.927Z,51.07
2022-09-03T23:54:02.066Z,51.17
2022-09-03T23:56:28.510Z,51.26
2022-09-03T23:58:54.646Z,51.53
